Time,TemperatureF,DewpointF,PressureIn,WindDirection,WindDirectionDegrees,WindSpeedMPH,WindSpeedGustMPH,Humidity,HourlyPrecipIn,Conditions,Clouds,dailyrainin,SoftwareType,DateUTC
2013-09-02 00:07:00,63.9,59.0,29.99,NNE,18,0.0,0.0,84,0.00,,,0.00,weatherlink.com 1.10,2013-09-02 05:07:00,
2013-09-02 00:22:00,63.6,59.0,29.99,NNE,18,0.0,0.0,85,0.00,,,0.00,weatherlink.com 1.10,2013-09-02 05:22:00,
2013-09-02 00:37:00,63.8,59.0,29.99,North,353,0.0,2.0,85,0.00,,,0.00,weatherlink.com 1.10,2013-09-02 05:37:00,
2013-09-02 00:52:00,65.4,60.0,30.00,North,4,0.0,4.0,83,0.00,,,0.00,weatherlink.com 1.10,2013-09-02 05:52:00,
2013-09-02 01:07:00,65.8,60.0,30.00,NNW,335,0.0,3.0,81,0.00,,,0.00,weatherlink.com 1.10,2013-09-02 06:07:00,
2013-09-02 01:22:00,66.1,60.0,30.00,North,2,2.0,5.0,81,0.00,,,0.00,weatherlink.com 1.10,2013-09-02 06:22:00,
2013-09-02 01:37:00,65.9,60.0,30.00,NNE,24,3.0,5.0,81,0.00,,,0.00,weatherlink.com 1.10,2013-09-02 06:37:00,
2013-09-02 01:52:00,65.4,60.0,30.01,NE,47,2.0,6.0,82,0.00,,,0.00,weatherlink.com 1.10,2013-09-02 06:52:00,
2013-09-02 02:07:00,64.9,60.0,30.01,NE,46,0.0,4.0,83,0.00,,,0.00,weatherlink.com 1.10,2013-09-02 07:07:00,
2013-09-02 02:22:00,64.3,59.0,30.01,NE,40,0.0,4.0,84,0.00,,,0.00,weatherlink.com 1.10,2013-09-02 07:22:00,
2013-09-02 02:37:00,63.9,60.0,30.00,NE,36,0.0,3.0,86,0.00,,,0.00,weatherlink.com 1.10,2013-09-02 07:37:00,
2013-09-02 02:52:00,63.6,59.0,30.01,NE,36,0.0,0.0,86,0.00,,,0.00,weatherlink.com 1.10,2013-09-02 07:52:00,
2013-09-02 03:07:00,62.7,58.0,30.01,NE,36,0.0,0.0,85,0.00,,,0.00,weatherlink.com 1.10,2013-09-02 08:07:00,
2013-09-02 03:22:00,61.7,58.0,30.01,NE,36,0.0,0.0,86,0.00,,,0.00,weatherlink.com 1.10,2013-09-02 08:22:00,
2013-09-02 03:38:00,60.6,57.0,30.01,NE,36,0.0,0.0,88,0.00,,,0.00,weatherlink.com 1.10,2013-09-02 08:38:00,
2013-09-02 03:53:00,59.5,56.0,30.01,NE,36,0.0,0.0,88,0.00,,,0.00,weatherlink.com 1.10,2013-09-02 08:53:00,
2013-09-02 04:08:00,58.7,56.0,30.01,NE,36,0.0,0.0,89,0.00,,,0.00,weatherlink.com 1.10,2013-09-02 09:08:00,
2013-09-02 04:23:00,58.0,55.0,30.01,NE,36,0.0,0.0,89,0.00,,,0.00,weatherlink.com 1.10,2013-09-02 09:23:00,
2013-09-02 04:38:00,57.5,55.0,30.01,NE,36,0.0,0.0,90,0.00,,,0.00,weatherlink.com 1.10,2013-09-02 09:38:00,
2013-09-02 04:53:00,57.1,55.0,30.02,NE,35,0.0,0.0,91,0.00,,,0.00,weatherlink.com 1.10,2013-09-02 09:53:00,
2013-09-02 05:23:00,56.3,54.0,30.02,NE,35,0.0,0.0,92,0.00,,,0.00,weatherlink.com 1.10,2013-09-02 10:23:00,
2013-09-02 05:38:00,56.4,54.0,30.03,NE,36,0.0,0.0,92,0.00,,,0.00,weatherlink.com 1.10,2013-09-02 10:38:00,
2013-09-02 05:53:00,55.6,53.0,30.04,NE,35,0.0,0.0,92,0.00,,,0.00,weatherlink.com 1.10,2013-09-02 10:53:00,
2013-09-02 06:08:00,55.0,53.0,30.03,NE,35,0.0,0.0,92,0.00,,,0.00,weatherlink.com 1.10,2013-09-02 11:08:00,
2013-09-02 06:23:00,54.8,53.0,30.04,NE,35,0.0,0.0,92,0.00,,,0.00,weatherlink.com 1.10,2013-09-02 11:23:00,
2013-09-02 06:38:00,54.9,53.0,30.04,NE,36,0.0,0.0,93,0.00,,,0.00,weatherlink.com 1.10,2013-09-02 11:38:00,
2013-09-02 06:53:00,54.5,52.0,30.05,NE,36,0.0,0.0,92,0.00,,,0.00,weatherlink.com 1.10,2013-09-02 11:53:00,
2013-09-02 07:08:00,54.0,52.0,30.05,NE,36,0.0,0.0,92,0.00,,,0.00,weatherlink.com 1.10,2013-09-02 12:08:00,
2013-09-02 07:23:00,54.4,53.0,30.05,NE,36,0.0,0.0,93,0.00,,,0.00,weatherlink.com 1.10,2013-09-02 12:23:00,
2013-09-02 07:38:00,55.4,54.0,30.06,NE,36,0.0,0.0,94,0.00,,,0.00,weatherlink.com 1.10,2013-09-02 12:38:00,
2013-09-02 07:53:00,57.3,56.0,30.06,NE,36,0.0,0.0,94,0.00,,,0.00,weatherlink.com 1.10,2013-09-02 12:53:00,
2013-09-02 08:08:00,60.0,59.0,30.06,NE,36,0.0,0.0,95,0.00,,,0.00,weatherlink.com 1.10,2013-09-02 13:08:00,
2013-09-02 08:23:00,61.8,60.0,30.07,NNE,33,4.0,5.0,94,0.00,,,0.00,weatherlink.com 1.10,2013-09-02 13:23:00,
2013-09-02 08:38:00,62.7,59.0,30.07,NE,38,3.0,9.0,88,0.00,,,0.00,weatherlink.com 1.10,2013-09-02 13:38:00,
2013-09-02 08:53:00,63.8,59.0,30.07,NE,35,3.0,6.0,85,0.00,,,0.00,weatherlink.com 1.10,2013-09-02 13:53:00,
2013-09-02 09:08:00,64.9,60.0,30.07,NE,39,3.0,7.0,83,0.00,,,0.00,weatherlink.com 1.10,2013-09-02 14:08:00,
2013-09-02 09:23:00,65.5,60.0,30.08,North,353,6.0,7.0,81,0.00,,,0.00,weatherlink.com 1.10,2013-09-02 14:23:00,
2013-09-02 09:38:00,66.5,59.0,30.08,North,4,4.0,7.0,78,0.00,,,0.00,weatherlink.com 1.10,2013-09-02 14:38:00,
2013-09-02 09:53:00,67.6,59.0,30.08,NNE,24,4.0,6.0,75,0.00,,,0.00,weatherlink.com 1.10,2013-09-02 14:53:00,
2013-09-02 10:08:00,68.3,60.0,30.08,NNW,333,4.0,8.0,74,0.00,,,0.00,weatherlink.com 1.10,2013-09-02 15:08:00,
2013-09-02 10:23:00,69.0,60.0,30.09,NNE,12,0.0,6.0,73,0.00,,,0.00,weatherlink.com 1.10,2013-09-02 15:23:00,
2013-09-02 10:39:00,69.8,60.0,30.09,NE,40,2.0,7.0,72,0.00,,,0.00,weatherlink.com 1.10,2013-09-02 15:39:00,
2013-09-02 10:54:00,70.3,60.0,30.08,North,359,4.0,8.0,69,0.00,,,0.00,weatherlink.com 1.10,2013-09-02 15:54:00,
2013-09-02 11:09:00,71.0,59.0,30.09,NNE,30,5.0,9.0,67,0.00,,,0.00,weatherlink.com 1.10,2013-09-02 16:09:00,
2013-09-02 11:24:00,71.9,60.0,30.08,NW,320,2.0,8.0,66,0.00,,,0.00,weatherlink.com 1.10,2013-09-02 16:24:00,
2013-09-02 11:39:00,72.8,60.0,30.08,North,351,4.0,7.0,65,0.00,,,0.00,weatherlink.com 1.10,2013-09-02 16:39:00,
2013-09-02 11:54:00,73.3,59.0,30.07,NNE,19,7.0,10.0,62,0.00,,,0.00,weatherlink.com 1.10,2013-09-02 16:54:00,
2013-09-02 12:09:00,73.9,59.0,30.07,NNE,27,5.0,9.0,61,0.00,,,0.00,weatherlink.com 1.10,2013-09-02 17:09:00,
2013-09-02 12:24:00,74.4,59.0,30.07,NW,326,2.0,10.0,58,0.00,,,0.00,weatherlink.com 1.10,2013-09-02 17:24:00,
2013-09-02 12:39:00,75.2,58.0,30.07,North,360,3.0,9.0,55,0.00,,,0.00,weatherlink.com 1.10,2013-09-02 17:39:00,
2013-09-02 12:54:00,75.3,57.0,30.07,NE,45,5.0,7.0,54,0.00,,,0.00,weatherlink.com 1.10,2013-09-02 17:54:00,
2013-09-02 13:09:00,76.0,58.0,30.06,North,357,7.0,10.0,53,0.00,,,0.00,weatherlink.com 1.10,2013-09-02 18:09:00,
2013-09-02 13:24:00,76.4,55.0,30.05,NNE,25,3.0,8.0,47,0.00,,,0.00,weatherlink.com 1.10,2013-09-02 18:24:00,
2013-09-02 13:39:00,77.2,55.0,30.05,ENE,72,0.0,8.0,47,0.00,,,0.00,weatherlink.com 1.10,2013-09-02 18:39:00,
2013-09-02 13:54:00,77.6,55.0,30.04,ENE,66,2.0,12.0,45,0.00,,,0.00,weatherlink.com 1.10,2013-09-02 18:54:00,
2013-09-02 14:09:00,78.6,51.0,30.04,NNE,14,2.0,8.0,38,0.00,,,0.00,weatherlink.com 1.10,2013-09-02 19:09:00,
2013-09-02 14:24:00,78.4,50.0,30.04,NW,316,0.0,8.0,37,0.00,,,0.00,weatherlink.com 1.10,2013-09-02 19:24:00,
2013-09-02 14:39:00,78.7,46.0,30.04,NE,48,0.0,10.0,32,0.00,,,0.00,weatherlink.com 1.10,2013-09-02 19:39:00,
2013-09-02 14:54:00,79.5,51.0,30.03,NE,40,3.0,7.0,37,0.00,,,0.00,weatherlink.com 1.10,2013-09-02 19:54:00,
2013-09-02 15:09:00,79.6,52.0,30.03,West,267,0.0,6.0,39,0.00,,,0.00,weatherlink.com 1.10,2013-09-02 20:09:00,
2013-09-02 15:24:00,80.1,50.0,30.02,NNW,327,0.0,9.0,35,0.00,,,0.00,weatherlink.com 1.10,2013-09-02 20:24:00,
2013-09-02 15:39:00,80.9,49.0,30.02,WSW,243,0.0,7.0,33,0.00,,,0.00,weatherlink.com 1.10,2013-09-02 20:39:00,
2013-09-02 15:54:00,80.6,48.0,30.02,North,358,0.0,5.0,32,0.00,,,0.00,weatherlink.com 1.10,2013-09-02 20:54:00,
2013-09-02 16:09:00,80.5,48.0,30.01,North,356,6.0,11.0,32,0.00,,,0.00,weatherlink.com 1.10,2013-09-02 21:09:00,
2013-09-02 16:24:00,81.3,48.0,30.01,North,358,2.0,5.0,31,0.00,,,0.00,weatherlink.com 1.10,2013-09-02 21:24:00,
2013-09-02 16:39:00,81.1,48.0,30.01,NE,38,0.0,7.0,31,0.00,,,0.00,weatherlink.com 1.10,2013-09-02 21:39:00,
2013-09-02 16:54:00,81.0,49.0,30.00,NE,35,0.0,8.0,33,0.00,,,0.00,weatherlink.com 1.10,2013-09-02 21:54:00,
2013-09-02 17:09:00,81.0,49.0,30.00,North,360,3.0,10.0,33,0.00,,,0.00,weatherlink.com 1.10,2013-09-02 22:09:00,
2013-09-02 17:24:00,80.6,49.0,30.00,NNE,16,0.0,4.0,33,0.00,,,0.00,weatherlink.com 1.10,2013-09-02 22:24:00,
2013-09-02 17:39:00,80.9,51.0,30.00,North,7,0.0,4.0,35,0.00,,,0.00,weatherlink.com 1.10,2013-09-02 22:39:00,
2013-09-02 17:54:00,80.4,51.0,30.00,ENE,78,2.0,5.0,36,0.00,,,0.00,weatherlink.com 1.10,2013-09-02 22:54:00,
2013-09-02 18:09:00,79.9,50.0,30.00,North,8,0.0,7.0,35,0.00,,,0.00,weatherlink.com 1.10,2013-09-02 23:09:00,
2013-09-02 18:24:00,79.8,50.0,30.00,NE,40,0.0,6.0,35,0.00,,,0.00,weatherlink.com 1.10,2013-09-02 23:24:00,
2013-09-02 18:39:00,79.2,50.0,30.00,NE,35,0.0,2.0,36,0.00,,,0.00,weatherlink.com 1.10,2013-09-02 23:39:00,
2013-09-02 18:54:00,78.1,50.0,30.00,NE,43,0.0,4.0,37,0.00,,,0.00,weatherlink.com 1.10,2013-09-02 23:54:00,
2013-09-02 19:09:00,77.1,50.0,30.00,NNE,17,0.0,2.0,39,0.00,,,0.00,weatherlink.com 1.10,2013-09-03 00:09:00,
2013-09-02 19:24:00,75.8,52.0,30.00,NNE,28,0.0,0.0,44,0.00,,,0.00,weatherlink.com 1.10,2013-09-03 00:24:00,
2013-09-02 19:39:00,74.1,52.0,30.00,NNE,28,0.0,0.0,46,0.00,,,0.00,weatherlink.com 1.10,2013-09-03 00:39:00,
2013-09-02 19:54:00,71.6,52.0,30.00,NNE,28,0.0,0.0,50,0.00,,,0.00,weatherlink.com 1.10,2013-09-03 00:54:00,
2013-09-02 20:09:00,69.4,51.0,30.00,NNE,28,0.0,0.0,53,0.00,,,0.00,weatherlink.com 1.10,2013-09-03 01:09:00,
2013-09-02 20:24:00,66.7,51.0,30.00,NNE,28,0.0,0.0,58,0.00,,,0.00,weatherlink.com 1.10,2013-09-03 01:24:00,
2013-09-02 20:39:00,64.5,51.0,30.01,NNE,28,0.0,0.0,61,0.00,,,0.00,weatherlink.com 1.10,2013-09-03 01:39:00,
2013-09-02 20:54:00,62.7,52.0,30.01,NNE,28,0.0,0.0,67,0.00,,,0.00,weatherlink.com 1.10,2013-09-03 01:54:00,
2013-09-02 21:09:00,61.2,52.0,30.02,NNE,28,0.0,0.0,71,0.00,,,0.00,weatherlink.com 1.10,2013-09-03 02:09:00,
2013-09-02 21:24:00,59.9,52.0,30.03,NNE,28,0.0,0.0,74,0.00,,,0.00,weatherlink.com 1.10,2013-09-03 02:24:00,
2013-09-02 21:39:00,58.9,52.0,30.03,NNE,28,0.0,0.0,77,0.00,,,0.00,weatherlink.com 1.10,2013-09-03 02:39:00,
2013-09-02 21:54:00,57.9,51.0,30.03,NNE,28,0.0,0.0,79,0.00,,,0.00,weatherlink.com 1.10,2013-09-03 02:54:00,
2013-09-02 22:09:00,57.1,52.0,30.03,NNE,28,0.0,0.0,82,0.00,,,0.00,weatherlink.com 1.10,2013-09-03 03:09:00,
2013-09-02 22:24:00,56.3,51.0,30.03,NNE,28,0.0,0.0,83,0.00,,,0.00,weatherlink.com 1.10,2013-09-03 03:24:00,
2013-09-02 22:39:00,55.7,51.0,30.03,NNE,28,0.0,0.0,85,0.00,,,0.00,weatherlink.com 1.10,2013-09-03 03:39:00,
2013-09-02 22:54:00,55.1,51.0,30.03,NNE,28,0.0,0.0,85,0.00,,,0.00,weatherlink.com 1.10,2013-09-03 03:54:00,
2013-09-02 23:09:00,54.6,51.0,30.03,NNE,28,0.0,0.0,87,0.00,,,0.00,weatherlink.com 1.10,2013-09-03 04:09:00,
2013-09-02 23:24:00,54.1,50.0,30.03,NNE,28,0.0,0.0,87,0.00,,,0.00,weatherlink.com 1.10,2013-09-03 04:24:00,
2013-09-02 23:39:00,53.7,50.0,30.03,NNE,28,0.0,0.0,88,0.00,,,0.00,weatherlink.com 1.10,2013-09-03 04:39:00,
2013-09-02 23:55:00,53.2,50.0,30.03,NNE,28,0.0,0.0,89,0.00,,,0.00,weatherlink.com 1.10,2013-09-03 04:55:00,